createdAt,value
2018-08-20T00:01:35.525Z,19.60
2018-08-20T00:04:09.652Z,19.60
2018-08-20T00:06:51.521Z,19.60
2018-08-20T00:09:21.674Z,19.60
2018-08-20T00:11:50.179Z,19.60
2018-08-20T00:14:21.067Z,19.50
2018-08-20T00:16:49.693Z,19.50
2018-08-20T00:19:18.191Z,19.50
2018-08-20T00:21:46.693Z,19.50
2018-08-20T00:24:15.141Z,19.50
2018-08-20T00:26:43.629Z,19.50
2018-08-20T00:29:12.085Z,19.50
2018-08-20T00:31:40.533Z,19.50
2018-08-20T00:34:09.061Z,19.50
2018-08-20T00:36:37.500Z,19.50
2018-08-20T00:39:07.886Z,19.50
2018-08-20T00:41:36.429Z,19.50
2018-08-20T00:44:08.562Z,19.50
2018-08-20T00:46:37.013Z,19.50
2018-08-20T00:49:05.533Z,19.40
2018-08-20T00:51:40.535Z,19.40
2018-08-20T00:54:09.042Z,19.50
2018-08-20T00:56:37.534Z,19.50
2018-08-20T00:59:05.983Z,19.50
2018-08-20T01:01:34.656Z,19.50
2018-08-20T01:04:03.659Z,19.50
2018-08-20T01:06:32.120Z,19.50
2018-08-20T01:09:00.618Z,19.50
2018-08-20T01:11:29.147Z,19.50
2018-08-20T01:13:57.594Z,19.50
2018-08-20T01:16:26.056Z,19.50
2018-08-20T01:18:54.674Z,19.50
2018-08-20T01:21:23.178Z,19.50
2018-08-20T01:23:51.611Z,19.50
2018-08-20T01:26:20.070Z,19.50
2018-08-20T01:28:48.588Z,19.50
2018-08-20T01:31:17.029Z,19.40
2018-08-20T01:33:45.486Z,19.40
2018-08-20T01:36:13.943Z,19.40
2018-08-20T01:38:42.419Z,19.40
2018-08-20T01:41:10.897Z,19.50
2018-08-20T01:43:39.365Z,19.50
2018-08-20T01:46:08.003Z,19.50
2018-08-20T01:48:36.477Z,19.50
2018-08-20T01:51:04.959Z,19.50
2018-08-20T01:53:33.465Z,19.50
2018-08-20T01:56:02.359Z,19.50
2018-08-20T01:58:30.825Z,19.50
2018-08-20T02:00:59.295Z,19.50
2018-08-20T02:03:27.761Z,19.40
2018-08-20T02:05:56.249Z,19.40
2018-08-20T02:08:24.726Z,19.40
2018-08-20T02:10:53.201Z,19.40
2018-08-20T02:13:22.678Z,19.40
2018-08-20T02:15:51.196Z,19.40
2018-08-20T02:18:19.672Z,19.40
2018-08-20T02:20:48.136Z,19.40
2018-08-20T02:23:16.609Z,19.40
2018-08-20T02:25:45.072Z,19.40
2018-08-20T02:28:13.524Z,19.40
2018-08-20T02:30:41.970Z,19.40
2018-08-20T02:33:10.497Z,19.30
2018-08-20T02:35:38.969Z,19.30
2018-08-20T02:38:07.484Z,19.30
2018-08-20T02:40:36.012Z,19.30
2018-08-20T02:43:04.486Z,19.30
2018-08-20T02:45:33.039Z,19.30
2018-08-20T02:48:01.516Z,19.30
2018-08-20T02:50:29.956Z,19.30
2018-08-20T02:52:58.479Z,19.30
2018-08-20T02:55:26.895Z,19.20
2018-08-20T02:57:55.370Z,19.20
2018-08-20T03:00:23.786Z,19.20
2018-08-20T03:02:52.278Z,19.20
2018-08-20T03:05:20.783Z,19.20
2018-08-20T03:07:49.264Z,19.20
2018-08-20T03:10:17.723Z,19.20
2018-08-20T03:12:46.187Z,19.20
2018-08-20T03:15:14.619Z,19.20
2018-08-20T03:17:43.081Z,19.20
2018-08-20T03:20:11.553Z,19.30
2018-08-20T03:22:40.121Z,19.30
2018-08-20T03:25:09.168Z,19.30
2018-08-20T03:27:37.848Z,19.30
2018-08-20T03:30:07.550Z,19.20
2018-08-20T03:32:36.010Z,19.20
2018-08-20T03:35:05.532Z,19.20
2018-08-20T03:37:33.959Z,19.20
2018-08-20T03:40:02.438Z,19.20
2018-08-20T03:42:30.912Z,19.20
2018-08-20T03:44:59.426Z,19.20
2018-08-20T03:47:27.876Z,19.20
2018-08-20T03:49:56.357Z,19.20
2018-08-20T03:52:24.899Z,19.20
2018-08-20T03:54:53.409Z,19.20
2018-08-20T03:57:21.969Z,19.10
2018-08-20T03:59:50.469Z,19.10
2018-08-20T04:02:18.979Z,19.20
2018-08-20T04:04:47.505Z,19.20
2018-08-20T04:07:16.029Z,19.20
2018-08-20T04:09:44.497Z,19.20
2018-08-20T04:12:13.815Z,19.20
2018-08-20T04:14:42.286Z,19.20
2018-08-20T04:17:10.753Z,19.20
2018-08-20T04:19:39.183Z,19.20
2018-08-20T04:22:07.744Z,19.20
2018-08-20T04:24:36.740Z,19.20
2018-08-20T04:27:05.542Z,19.20
2018-08-20T04:29:33.963Z,19.20
2018-08-20T04:32:02.397Z,19.20
2018-08-20T04:34:30.856Z,19.20
2018-08-20T04:36:59.334Z,19.20
2018-08-20T04:39:27.816Z,19.20
2018-08-20T04:41:56.277Z,19.30
2018-08-20T04:44:24.720Z,19.30
2018-08-20T04:46:53.208Z,19.30
2018-08-20T04:49:21.752Z,19.30
2018-08-20T04:51:50.252Z,19.30
2018-08-20T04:54:18.675Z,19.30
2018-08-20T04:56:47.103Z,19.30
2018-08-20T04:59:15.510Z,19.30
2018-08-20T05:01:43.938Z,19.40
2018-08-20T05:04:12.470Z,19.40
2018-08-20T05:06:40.908Z,19.40
2018-08-20T05:09:09.448Z,19.40
2018-08-20T05:11:37.887Z,19.40
2018-08-20T05:14:06.365Z,19.40
2018-08-20T05:16:34.828Z,19.40
2018-08-20T05:19:03.422Z,19.50
2018-08-20T05:21:31.840Z,19.50
2018-08-20T05:24:00.285Z,19.50
2018-08-20T05:26:28.733Z,19.60
2018-08-20T05:28:57.269Z,19.60
2018-08-20T05:31:25.739Z,19.60
2018-08-20T05:33:54.220Z,19.60
2018-08-20T05:36:22.663Z,19.60
2018-08-20T05:38:51.103Z,19.70
2018-08-20T05:41:19.513Z,19.70
2018-08-20T05:43:47.958Z,19.70
2018-08-20T05:46:16.423Z,19.80
2018-08-20T05:48:44.912Z,19.80
2018-08-20T05:51:13.402Z,19.80
2018-08-20T05:53:41.883Z,19.90
2018-08-20T05:56:10.337Z,19.90
2018-08-20T05:58:38.807Z,20.00
2018-08-20T06:01:07.301Z,20.00
2018-08-20T06:03:35.739Z,20.10
2018-08-20T06:06:04.237Z,20.00
2018-08-20T06:08:32.672Z,20.10
2018-08-20T06:11:01.110Z,20.10
2018-08-20T06:13:29.540Z,20.00
2018-08-20T06:15:58.090Z,20.00
2018-08-20T06:18:26.554Z,20.00
2018-08-20T06:20:55.073Z,20.00
2018-08-20T06:23:23.574Z,20.00
2018-08-20T06:25:52.079Z,20.10
2018-08-20T06:28:20.542Z,20.10
2018-08-20T06:30:49.031Z,20.20
2018-08-20T06:33:17.510Z,20.20
2018-08-20T06:35:45.988Z,20.20
2018-08-20T06:38:14.510Z,20.20
2018-08-20T06:40:43.020Z,20.20
2018-08-20T06:43:11.505Z,20.30
2018-08-20T06:45:40.012Z,20.30
2018-08-20T06:48:08.506Z,20.50
2018-08-20T06:50:36.990Z,20.60
2018-08-20T06:53:05.746Z,20.70
2018-08-20T06:55:34.261Z,20.90
2018-08-20T06:58:02.932Z,21.00
2018-08-20T07:00:31.894Z,21.10
2018-08-20T07:03:00.355Z,21.30
2018-08-20T07:05:28.831Z,21.40
2018-08-20T07:07:57.378Z,21.40
2018-08-20T07:10:28.106Z,21.60
2018-08-20T07:13:06.559Z,21.80
2018-08-20T07:15:35.054Z,21.80
2018-08-20T07:18:03.570Z,21.90
2018-08-20T07:20:32.037Z,21.90
2018-08-20T07:23:00.577Z,21.90
2018-08-20T07:25:29.076Z,22.00
2018-08-20T07:28:00.487Z,22.20
2018-08-20T07:30:29.018Z,22.30
2018-08-20T07:32:57.495Z,22.40
2018-08-20T07:35:26.022Z,22.50
2018-08-20T07:37:54.485Z,22.40
2018-08-20T07:40:22.984Z,22.30
2018-08-20T07:42:51.439Z,22.50
2018-08-20T07:45:19.883Z,22.50
2018-08-20T07:47:48.352Z,22.70
2018-08-20T07:50:16.833Z,22.80
2018-08-20T07:52:45.327Z,22.90
2018-08-20T07:55:13.819Z,23.00
2018-08-20T07:57:42.330Z,23.10
2018-08-20T08:00:10.908Z,23.20
2018-08-20T08:02:39.825Z,23.30
2018-08-20T08:05:09.565Z,23.30
2018-08-20T08:07:38.187Z,23.30
2018-08-20T08:10:08.721Z,23.40
2018-08-20T08:12:37.936Z,23.50
2018-08-20T08:15:07.425Z,23.30
2018-08-20T08:17:35.894Z,23.10
2018-08-20T08:20:04.897Z,23.20
2018-08-20T08:22:33.346Z,23.30
2018-08-20T08:25:01.852Z,23.40
2018-08-20T08:27:37.432Z,23.40
2018-08-20T08:30:16.029Z,23.40
2018-08-20T08:32:44.639Z,23.40
2018-08-20T08:35:13.799Z,23.40
2018-08-20T08:37:42.692Z,23.40
2018-08-20T08:40:12.928Z,23.40
2018-08-20T08:42:41.424Z,23.20
2018-08-20T08:45:13.360Z,23.20
2018-08-20T08:47:42.249Z,23.20
2018-08-20T08:50:10.964Z,23.30
2018-08-20T08:52:39.490Z,23.20
2018-08-20T08:55:08.505Z,23.10
2018-08-20T08:57:37.496Z,23.00
2018-08-20T09:00:14.685Z,23.00
2018-08-20T09:02:43.298Z,23.00
2018-08-20T09:05:12.166Z,22.90
2018-08-20T09:07:41.599Z,22.90
2018-08-20T09:10:10.734Z,22.90
2018-08-20T09:12:39.333Z,22.90
2018-08-20T09:15:15.001Z,22.90
2018-08-20T09:17:44.016Z,22.90
2018-08-20T09:20:16.594Z,22.80
2018-08-20T09:22:45.319Z,22.60
2018-08-20T09:25:14.648Z,22.50
2018-08-20T09:27:44.473Z,22.30
2018-08-20T09:30:16.743Z,22.20
2018-08-20T09:32:46.331Z,22.20
2018-08-20T09:35:14.801Z,22.20
2018-08-20T09:37:43.348Z,22.40
2018-08-20T09:40:12.473Z,22.60
2018-08-20T09:42:41.727Z,22.70
2018-08-20T09:45:11.339Z,22.90
2018-08-20T09:47:40.977Z,22.90
2018-08-20T09:50:12.041Z,22.90
2018-08-20T09:52:40.549Z,23.00
2018-08-20T09:55:09.591Z,22.90
2018-08-20T09:57:38.140Z,22.80
2018-08-20T10:00:18.073Z,22.80
2018-08-20T10:02:46.603Z,22.80
2018-08-20T10:05:15.125Z,22.80
2018-08-20T10:07:44.078Z,22.70
2018-08-20T10:10:12.603Z,22.80
2018-08-20T10:12:41.124Z,22.80
2018-08-20T10:15:09.950Z,22.80
2018-08-20T10:17:38.414Z,22.70
2018-08-20T10:20:09.042Z,22.80
2018-08-20T10:22:37.577Z,22.70
2018-08-20T10:25:06.374Z,22.80
2018-08-20T10:27:34.870Z,22.90
2018-08-20T10:30:03.377Z,23.00
2018-08-20T10:32:32.373Z,23.20
2018-08-20T10:35:01.458Z,23.20
2018-08-20T10:37:29.994Z,23.30
2018-08-20T10:39:58.470Z,23.30
2018-08-20T10:42:26.928Z,23.30
2018-08-20T10:45:00.630Z,23.30
2018-08-20T10:47:29.068Z,23.20
2018-08-20T10:49:57.562Z,23.20
2018-08-20T10:52:26.106Z,23.30
2018-08-20T10:54:54.598Z,23.50
2018-08-20T10:57:23.089Z,23.60
2018-08-20T10:59:51.544Z,23.70
2018-08-20T11:02:20.012Z,23.60
2018-08-20T11:04:51.976Z,23.60
2018-08-20T11:07:20.458Z,23.40
2018-08-20T11:09:48.946Z,23.40
2018-08-20T11:12:17.432Z,23.30
2018-08-20T11:14:45.868Z,23.20
2018-08-20T11:17:14.333Z,23.00
2018-08-20T11:19:42.772Z,22.60
2018-08-20T11:22:11.230Z,22.30
2018-08-20T11:24:39.661Z,22.10
2018-08-20T11:27:08.151Z,22.00
2018-08-20T11:29:36.593Z,21.90
2018-08-20T11:32:05.042Z,22.00
2018-08-20T11:34:33.551Z,22.00
2018-08-20T11:37:02.058Z,22.10
2018-08-20T11:39:30.505Z,22.10
2018-08-20T11:42:06.059Z,22.30
2018-08-20T11:44:34.545Z,22.40
2018-08-20T11:47:03.084Z,22.60
2018-08-20T11:49:31.494Z,22.90
2018-08-20T11:52:00.211Z,23.00
2018-08-20T11:54:28.693Z,23.20
2018-08-20T11:56:57.115Z,23.40
2018-08-20T11:59:25.601Z,23.30
2018-08-20T12:01:54.126Z,23.40
2018-08-20T12:04:23.169Z,23.40
2018-08-20T12:06:51.881Z,23.40
2018-08-20T12:09:20.361Z,23.60
2018-08-20T12:11:48.852Z,23.60
2018-08-20T12:14:17.338Z,23.60
2018-08-20T12:16:45.830Z,23.50
2018-08-20T12:19:14.296Z,23.30
2018-08-20T12:21:42.776Z,23.00
2018-08-20T12:24:11.227Z,23.10
2018-08-20T12:26:39.644Z,23.20
2018-08-20T12:29:08.091Z,23.30
2018-08-20T12:31:36.543Z,23.30
2018-08-20T12:34:05.012Z,23.20
2018-08-20T12:36:33.477Z,23.10
2018-08-20T12:39:01.980Z,22.90
2018-08-20T12:41:30.520Z,22.90
2018-08-20T12:43:58.951Z,22.80
2018-08-20T12:46:27.399Z,22.70
2018-08-20T12:48:55.818Z,22.70
2018-08-20T12:51:24.280Z,22.60
2018-08-20T12:53:52.756Z,22.70
2018-08-20T12:56:21.269Z,22.90
2018-08-20T12:58:50.794Z,23.20
2018-08-20T13:01:19.341Z,23.50
2018-08-20T13:03:48.688Z,23.90
2018-08-20T13:06:17.295Z,24.30
2018-08-20T13:08:46.707Z,24.60
2018-08-20T13:11:15.602Z,24.70
2018-08-20T13:13:44.182Z,24.70
2018-08-20T13:16:12.784Z,24.80
2018-08-20T13:18:41.123Z,24.90
2018-08-20T13:21:09.605Z,25.00
2018-08-20T13:23:38.067Z,25.10
2018-08-20T13:26:06.817Z,25.20
2018-08-20T13:28:35.307Z,25.60
2018-08-20T13:31:04.129Z,25.70
2018-08-20T13:33:32.603Z,25.80
2018-08-20T13:36:01.058Z,25.80
2018-08-20T13:38:29.535Z,25.90
2018-08-20T13:40:58.023Z,26.10
2018-08-20T13:43:26.537Z,26.40
2018-08-20T13:45:55.011Z,26.60
2018-08-20T13:48:23.509Z,26.70
2018-08-20T13:50:54.940Z,26.50
2018-08-20T13:53:23.521Z,26.30
2018-08-20T13:55:52.052Z,26.60
2018-08-20T13:58:20.568Z,27.00
2018-08-20T14:00:49.087Z,27.30
2018-08-20T14:03:17.639Z,28.00
2018-08-20T14:05:46.173Z,28.40
2018-08-20T14:08:15.873Z,28.10
2018-08-20T14:10:44.359Z,28.00
2018-08-20T14:13:12.848Z,27.70
2018-08-20T14:15:42.772Z,27.30
2018-08-20T14:18:11.306Z,27.30
2018-08-20T14:20:45.783Z,27.60
2018-08-20T14:23:14.252Z,28.20
2018-08-20T14:25:42.772Z,28.70
2018-08-20T14:28:11.297Z,28.70
2018-08-20T14:30:40.693Z,28.60
2018-08-20T14:33:09.126Z,29.50
2018-08-20T14:35:37.600Z,30.00
2018-08-20T14:38:06.132Z,29.70
2018-08-20T14:40:34.699Z,29.20
2018-08-20T14:43:03.223Z,28.90
2018-08-20T14:45:37.088Z,28.50
2018-08-20T14:48:06.222Z,28.30
2018-08-20T14:50:34.695Z,27.90
2018-08-20T14:53:03.252Z,27.60
2018-08-20T14:55:31.737Z,27.50
2018-08-20T14:58:00.228Z,27.10
2018-08-20T15:00:28.666Z,26.60
2018-08-20T15:02:57.185Z,26.30
2018-08-20T15:05:25.704Z,26.10
2018-08-20T15:07:54.173Z,26.10
2018-08-20T15:10:22.668Z,26.10
2018-08-20T15:12:51.190Z,26.00
2018-08-20T15:15:19.785Z,25.80
2018-08-20T15:17:48.197Z,25.60
2018-08-20T15:20:16.721Z,25.60
2018-08-20T15:22:45.256Z,25.20
2018-08-20T15:25:13.725Z,25.00
2018-08-20T15:27:42.224Z,24.90
2018-08-20T15:30:10.781Z,24.90
2018-08-20T15:32:39.414Z,24.90
2018-08-20T15:35:08.009Z,24.70
2018-08-20T15:37:36.487Z,24.70
2018-08-20T15:40:05.536Z,24.60
2018-08-20T15:42:34.173Z,24.50
2018-08-20T15:45:02.685Z,24.40
2018-08-20T15:47:31.195Z,24.30
2018-08-20T15:49:59.717Z,24.30
2018-08-20T15:52:28.155Z,24.30
2018-08-20T15:54:56.609Z,24.30
2018-08-20T15:57:25.190Z,24.40
2018-08-20T15:59:53.791Z,24.40
2018-08-20T16:02:22.288Z,24.50
2018-08-20T16:04:50.743Z,24.60
2018-08-20T16:07:19.215Z,24.60
2018-08-20T16:09:48.426Z,24.60
2018-08-20T16:12:16.963Z,24.50
2018-08-20T16:14:45.450Z,24.50
2018-08-20T16:17:13.906Z,24.40
2018-08-20T16:19:42.408Z,24.30
2018-08-20T16:22:10.932Z,24.20
2018-08-20T16:24:39.404Z,24.20
2018-08-20T16:27:07.850Z,24.20
2018-08-20T16:29:36.356Z,24.20
2018-08-20T16:32:05.008Z,24.20
2018-08-20T16:34:33.498Z,24.20
2018-08-20T16:37:02.001Z,24.20
2018-08-20T16:39:30.571Z,24.10
2018-08-20T16:41:59.075Z,24.10
2018-08-20T16:44:27.475Z,24.10
2018-08-20T16:46:55.932Z,24.00
2018-08-20T16:49:24.446Z,23.90
2018-08-20T16:51:52.959Z,23.90
2018-08-20T16:54:21.472Z,23.80
2018-08-20T16:56:49.911Z,23.80
2018-08-20T16:59:18.433Z,23.70
2018-08-20T17:01:46.915Z,23.70
2018-08-20T17:04:29.475Z,23.60
2018-08-20T17:06:59.392Z,23.50
2018-08-20T17:09:28.140Z,23.30
2018-08-20T17:11:56.662Z,23.20
2018-08-20T17:14:25.135Z,23.20
2018-08-20T17:16:53.933Z,23.10
2018-08-20T17:19:22.426Z,23.00
2018-08-20T17:21:50.895Z,22.90
2018-08-20T17:24:25.443Z,22.80
2018-08-20T17:26:54.108Z,22.70
2018-08-20T17:29:23.109Z,22.70
2018-08-20T17:31:51.559Z,22.70
2018-08-20T17:34:20.023Z,22.60
2018-08-20T17:36:48.471Z,22.60
2018-08-20T17:39:16.914Z,22.60
2018-08-20T17:41:45.398Z,22.60
2018-08-20T17:44:13.891Z,22.70
2018-08-20T17:46:42.384Z,22.70
2018-08-20T17:49:12.429Z,22.60
2018-08-20T17:51:40.900Z,22.60
2018-08-20T17:54:09.396Z,22.60
2018-08-20T17:56:38.106Z,22.60
2018-08-20T17:59:10.590Z,22.50
2018-08-20T18:01:39.126Z,22.50
2018-08-20T18:04:08.019Z,22.50
2018-08-20T18:06:59.826Z,22.50
2018-08-20T18:09:28.323Z,22.50
2018-08-20T18:11:57.114Z,22.40
2018-08-20T18:14:26.617Z,22.40
2018-08-20T18:16:55.160Z,22.40
2018-08-20T18:19:23.666Z,22.40
2018-08-20T18:21:52.175Z,22.30
2018-08-20T18:24:21.789Z,22.30
2018-08-20T18:26:57.387Z,22.30
2018-08-20T18:29:25.870Z,22.30
2018-08-20T18:31:56.249Z,22.20
2018-08-20T18:34:24.797Z,22.10
2018-08-20T18:36:53.373Z,22.10
2018-08-20T18:39:21.884Z,22.10
2018-08-20T18:41:59.365Z,22.00
2018-08-20T18:44:27.878Z,22.00
2018-08-20T18:46:56.457Z,21.90
2018-08-20T18:49:25.141Z,22.00
2018-08-20T18:51:59.967Z,21.90
2018-08-20T18:54:28.501Z,21.80
2018-08-20T18:57:02.083Z,21.70
2018-08-20T18:59:30.893Z,21.60
2018-08-20T19:01:59.406Z,21.50
2018-08-20T19:04:33.250Z,21.40
2018-08-20T19:07:05.966Z,21.30
2018-08-20T19:09:34.513Z,21.20
2018-08-20T19:12:03.057Z,21.10
2018-08-20T19:14:31.497Z,21.00
2018-08-20T19:16:59.965Z,20.90
2018-08-20T19:19:31.891Z,20.70
2018-08-20T19:22:01.341Z,20.60
2018-08-20T19:24:34.144Z,20.50
2018-08-20T19:27:06.896Z,20.40
2018-08-20T19:29:35.484Z,20.20
2018-08-20T19:32:04.537Z,20.20
2018-08-20T19:34:33.081Z,20.10
2018-08-20T19:37:01.814Z,20.00
2018-08-20T19:39:30.381Z,19.90
2018-08-20T19:41:58.867Z,19.80
2018-08-20T19:44:27.367Z,19.80
2018-08-20T19:46:56.179Z,19.80
2018-08-20T19:49:24.894Z,19.90
2018-08-20T19:51:53.426Z,19.90
2018-08-20T19:54:21.928Z,20.00
2018-08-20T19:56:50.391Z,20.10
2018-08-20T19:59:24.183Z,20.10
2018-08-20T20:01:53.191Z,20.10
2018-08-20T20:04:21.677Z,20.00
2018-08-20T20:06:50.197Z,20.00
2018-08-20T20:09:18.716Z,19.90
2018-08-20T20:11:48.977Z,19.90
2018-08-20T20:14:17.470Z,19.80
2018-08-20T20:16:53.222Z,19.80
2018-08-20T20:19:22.084Z,19.80
2018-08-20T20:21:50.580Z,19.70
2018-08-20T20:24:19.069Z,19.70
2018-08-20T20:26:47.600Z,19.70
2018-08-20T20:29:16.115Z,19.70
2018-08-20T20:31:44.517Z,19.80
2018-08-20T20:34:13.018Z,19.80
2018-08-20T20:36:41.511Z,19.80
2018-08-20T20:39:11.572Z,19.90
2018-08-20T20:41:40.190Z,19.90
2018-08-20T20:44:09.553Z,20.00
2018-08-20T20:46:38.069Z,20.00
2018-08-20T20:49:06.592Z,20.10
2018-08-20T20:51:35.056Z,20.10
2018-08-20T20:54:03.539Z,20.10
2018-08-20T20:56:32.026Z,20.10
2018-08-20T20:59:00.469Z,20.20
2018-08-20T21:01:28.889Z,20.20
2018-08-20T21:03:57.405Z,20.20
2018-08-20T21:06:25.891Z,20.20
2018-08-20T21:08:54.391Z,20.20
2018-08-20T21:11:23.076Z,20.30
2018-08-20T21:13:51.549Z,20.30
2018-08-20T21:16:24.407Z,20.20
2018-08-20T21:18:54.120Z,20.20
2018-08-20T21:21:23.221Z,20.20
2018-08-20T21:23:51.720Z,20.20
2018-08-20T21:26:20.243Z,20.20
2018-08-20T21:28:49.898Z,20.20
2018-08-20T21:31:19.682Z,20.20
2018-08-20T21:33:48.714Z,20.20
2018-08-20T21:36:17.200Z,20.20
2018-08-20T21:38:45.680Z,20.20
2018-08-20T21:41:14.160Z,20.20
2018-08-20T21:43:46.267Z,20.20
2018-08-20T21:46:15.082Z,20.20
2018-08-20T21:48:44.065Z,20.20
2018-08-20T21:51:18.028Z,20.20
2018-08-20T21:53:46.491Z,20.20
2018-08-20T21:56:15.022Z,20.20
2018-08-20T21:58:44.225Z,20.20
2018-08-20T22:01:14.164Z,20.20
2018-08-20T22:03:43.135Z,20.20
2018-08-20T22:06:12.258Z,20.20
2018-08-20T22:08:40.821Z,20.20
2018-08-20T22:11:10.037Z,20.20
2018-08-20T22:13:38.599Z,20.20
2018-08-20T22:16:23.885Z,20.20
2018-08-20T22:19:00.140Z,20.20
2018-08-20T22:21:28.647Z,20.10
2018-08-20T22:23:59.041Z,20.10
2018-08-20T22:26:27.817Z,20.10
2018-08-20T22:28:56.439Z,20.20
2018-08-20T22:31:24.913Z,20.10
2018-08-20T22:33:59.249Z,20.10
2018-08-20T22:36:28.924Z,20.10
2018-08-20T22:38:58.698Z,20.00
2018-08-20T22:41:28.206Z,20.10
2018-08-20T22:43:56.691Z,20.00
2018-08-20T22:46:25.632Z,20.00
2018-08-20T22:48:56.131Z,20.00
2018-08-20T22:51:25.426Z,19.90
2018-08-20T22:53:59.474Z,19.90
2018-08-20T22:56:31.804Z,19.90
2018-08-20T22:59:03.932Z,19.80
2018-08-20T23:01:32.481Z,19.80
2018-08-20T23:04:01.014Z,19.80
2018-08-20T23:06:29.810Z,19.80
2018-08-20T23:08:58.382Z,19.70
2018-08-20T23:11:40.788Z,19.60
2018-08-20T23:14:11.086Z,19.60
2018-08-20T23:16:39.916Z,19.50
2018-08-20T23:19:09.115Z,19.40
2018-08-20T23:21:42.853Z,19.30
2018-08-20T23:24:12.114Z,19.20
2018-08-20T23:26:40.714Z,19.10
2018-08-20T23:29:09.448Z,19.00
2018-08-20T23:31:38.259Z,19.00
2018-08-20T23:34:11.799Z,18.90
2018-08-20T23:36:40.871Z,18.90
2018-08-20T23:39:11.390Z,18.80
2018-08-20T23:41:40.081Z,18.80
2018-08-20T23:44:08.805Z,18.70
2018-08-20T23:46:42.977Z,18.60
2018-08-20T23:49:11.465Z,18.50
2018-08-20T23:51:40.041Z,18.50
2018-08-20T23:54:09.325Z,18.50
2018-08-20T23:56:37.845Z,18.50
2018-08-20T23:59:06.397Z,18.40
